sensor_id;sensor_type;location;lat;lon;timestamp;pressure;altitude;pressure_sealevel;temperature;humidity
62420;BME280;48460;51.616;5.426;2022-09-29T00:00:11;99961.97;;;6.51;100.00
62420;BME280;48460;51.616;5.426;2022-09-29T00:02:36;99961.28;;;6.48;100.00
62420;BME280;48460;51.616;5.426;2022-09-29T00:05:02;99958.91;;;6.43;100.00
62420;BME280;48460;51.616;5.426;2022-09-29T00:07:28;99956.31;;;6.43;100.00
62420;BME280;48460;51.616;5.426;2022-09-29T00:09:53;99963.44;;;6.39;100.00
62420;BME280;48460;51.616;5.426;2022-09-29T00:12:19;99960.94;;;6.36;100.00
62420;BME280;48460;51.616;5.426;2022-09-29T00:14:47;99945.44;;;6.33;100.00
62420;BME280;48460;51.616;5.426;2022-09-29T00:17:12;99951.53;;;6.34;100.00
62420;BME280;48460;51.616;5.426;2022-09-29T00:19:40;99944.84;;;6.28;100.00
62420;BME280;48460;51.616;5.426;2022-09-29T00:22:05;99945.03;;;6.24;100.00
62420;BME280;48460;51.616;5.426;2022-09-29T00:24:33;99938.16;;;6.23;100.00
62420;BME280;48460;51.616;5.426;2022-09-29T00:26:59;99948.44;;;6.26;100.00
62420;BME280;48460;51.616;5.426;2022-09-29T00:29:25;99945.00;;;6.25;100.00
62420;BME280;48460;51.616;5.426;2022-09-29T00:31:50;99949.38;;;6.25;100.00
62420;BME280;48460;51.616;5.426;2022-09-29T00:34:16;99940.97;;;6.18;100.00
62420;BME280;48460;51.616;5.426;2022-09-29T00:36:41;99947.97;;;6.18;100.00
62420;BME280;48460;51.616;5.426;2022-09-29T00:39:07;99944.72;;;6.12;100.00
62420;BME280;48460;51.616;5.426;2022-09-29T00:41:36;99940.56;;;6.08;100.00
62420;BME280;48460;51.616;5.426;2022-09-29T00:52:00;99953.75;;;5.86;100.00
62420;BME280;48460;51.616;5.426;2022-09-29T00:54:30;99943.03;;;5.74;100.00
62420;BME280;48460;51.616;5.426;2022-09-29T00:56:58;99940.44;;;5.74;100.00
62420;BME280;48460;51.616;5.426;2022-09-29T00:59:48;99944.59;;;5.78;100.00
62420;BME280;48460;51.616;5.426;2022-09-29T01:02:18;99947.06;;;5.81;100.00
62420;BME280;48460;51.616;5.426;2022-09-29T01:04:46;99945.22;;;5.83;100.00
62420;BME280;48460;51.616;5.426;2022-09-29T01:07:12;99943.47;;;5.83;100.00
62420;BME280;48460;51.616;5.426;2022-09-29T01:09:39;99942.69;;;5.81;100.00
62420;BME280;48460;51.616;5.426;2022-09-29T01:12:06;99935.78;;;5.80;100.00
62420;BME280;48460;51.616;5.426;2022-09-29T01:14:32;99937.47;;;5.81;100.00
62420;BME280;48460;51.616;5.426;2022-09-29T01:16:59;99938.41;;;5.80;100.00
62420;BME280;48460;51.616;5.426;2022-09-29T01:20:02;99943.19;;;5.89;100.00
62420;BME280;48460;51.616;5.426;2022-09-29T01:25:19;99945.44;;;5.78;100.00
62420;BME280;48460;51.616;5.426;2022-09-29T01:28:03;99948.19;;;5.75;100.00
62420;BME280;48460;51.616;5.426;2022-09-29T01:33:49;99946.78;;;5.68;100.00
62420;BME280;48460;51.616;5.426;2022-09-29T01:46:02;99951.28;;;5.45;100.00
62420;BME280;48460;51.616;5.426;2022-09-29T01:51:59;99954.72;;;5.27;100.00
62420;BME280;48460;51.616;5.426;2022-09-29T02:01:53;99956.53;;;5.25;100.00
62420;BME280;48460;51.616;5.426;2022-09-29T02:07:45;99951.06;;;5.31;100.00
62420;BME280;48460;51.616;5.426;2022-09-29T02:20:34;99947.81;;;5.26;100.00
62420;BME280;48460;51.616;5.426;2022-09-29T02:23:00;99949.50;;;5.27;100.00
62420;BME280;48460;51.616;5.426;2022-09-29T02:25:25;99968.50;;;5.29;100.00
62420;BME280;48460;51.616;5.426;2022-09-29T02:27:51;99961.56;;;5.30;100.00
62420;BME280;48460;51.616;5.426;2022-09-29T02:30:17;99958.97;;;5.30;100.00
62420;BME280;48460;51.616;5.426;2022-09-29T02:32:46;99958.97;;;5.30;100.00
62420;BME280;48460;51.616;5.426;2022-09-29T02:35:13;99960.66;;;5.31;100.00
62420;BME280;48460;51.616;5.426;2022-09-29T02:43:23;99960.91;;;5.24;100.00
62420;BME280;48460;51.616;5.426;2022-09-29T02:46:19;99961.06;;;5.21;100.00
62420;BME280;48460;51.616;5.426;2022-09-29T02:49:10;99966.25;;;5.21;100.00
62420;BME280;48460;51.616;5.426;2022-09-29T02:51:49;99965.44;;;5.21;100.00
62420;BME280;48460;51.616;5.426;2022-09-29T02:59:52;99958.72;;;5.15;100.00
62420;BME280;48460;51.616;5.426;2022-09-29T03:02:26;99960.47;;;5.15;100.00
62420;BME280;48460;51.616;5.426;2022-09-29T03:04:52;99963.97;;;5.14;100.00
62420;BME280;48460;51.616;5.426;2022-09-29T03:07:19;99963.22;;;5.12;100.00
62420;BME280;48460;51.616;5.426;2022-09-29T03:09:45;99965.97;;;5.09;100.00
62420;BME280;48460;51.616;5.426;2022-09-29T03:12:10;99962.63;;;5.05;100.00
62420;BME280;48460;51.616;5.426;2022-09-29T03:14:36;99968.81;;;5.02;100.00
62420;BME280;48460;51.616;5.426;2022-09-29T03:17:01;99965.56;;;4.97;100.00
62420;BME280;48460;51.616;5.426;2022-09-29T03:19:28;99969.03;;;4.98;100.00
62420;BME280;48460;51.616;5.426;2022-09-29T03:21:53;99958.59;;;4.98;100.00
62420;BME280;48460;51.616;5.426;2022-09-29T03:24:18;99966.47;;;4.96;100.00
62420;BME280;48460;51.616;5.426;2022-09-29T03:26:46;99963.22;;;4.91;100.00
62420;BME280;48460;51.616;5.426;2022-09-29T03:29:12;99952.88;;;4.90;100.00
62420;BME280;48460;51.616;5.426;2022-09-29T03:31:40;99956.31;;;4.90;100.00
62420;BME280;48460;51.616;5.426;2022-09-29T03:34:06;99958.03;;;4.91;100.00
62420;BME280;48460;51.616;5.426;2022-09-29T03:36:31;99954.69;;;4.88;100.00
62420;BME280;48460;51.616;5.426;2022-09-29T03:38:57;99954.75;;;4.86;100.00
62420;BME280;48460;51.616;5.426;2022-09-29T03:41:22;99967.59;;;4.91;100.00
62420;BME280;48460;51.616;5.426;2022-09-29T03:43:48;99957.28;;;4.88;100.00
62420;BME280;48460;51.616;5.426;2022-09-29T03:46:13;99958.34;;;4.84;100.00
62420;BME280;48460;51.616;5.426;2022-09-29T03:48:39;99950.75;;;4.79;100.00
62420;BME280;48460;51.616;5.426;2022-09-29T03:51:05;99951.75;;;4.75;100.00
62420;BME280;48460;51.616;5.426;2022-09-29T03:53:33;99953.69;;;4.70;100.00
62420;BME280;48460;51.616;5.426;2022-09-29T03:56:02;99961.47;;;4.71;100.00
62420;BME280;48460;51.616;5.426;2022-09-29T03:58:27;99962.38;;;4.70;100.00
62420;BME280;48460;51.616;5.426;2022-09-29T04:00:53;99969.28;;;4.71;100.00
62420;BME280;48460;51.616;5.426;2022-09-29T04:03:19;99961.72;;;4.65;100.00
62420;BME280;48460;51.616;5.426;2022-09-29T04:05:46;99966.09;;;4.65;100.00
62420;BME280;48460;51.616;5.426;2022-09-29T04:08:12;99969.97;;;4.54;100.00
62420;BME280;48460;51.616;5.426;2022-09-29T04:10:37;99965.22;;;4.44;100.00
62420;BME280;48460;51.616;5.426;2022-09-29T04:13:04;99968.84;;;4.40;100.00
62420;BME280;48460;51.616;5.426;2022-09-29T04:15:30;99974.00;;;4.41;100.00
62420;BME280;48460;51.616;5.426;2022-09-29T04:17:55;99983.63;;;4.39;100.00
62420;BME280;48460;51.616;5.426;2022-09-29T04:20:21;99980.22;;;4.37;100.00
62420;BME280;48460;51.616;5.426;2022-09-29T04:22:46;99974.13;;;4.38;100.00
62420;BME280;48460;51.616;5.426;2022-09-29T04:25:12;99980.00;;;4.43;100.00
62420;BME280;48460;51.616;5.426;2022-09-29T04:27:40;99977.50;;;4.40;100.00
62420;BME280;48460;51.616;5.426;2022-09-29T04:30:08;99973.19;;;4.39;100.00
62420;BME280;48460;51.616;5.426;2022-09-29T04:32:37;99987.81;;;4.43;100.00
62420;BME280;48460;51.616;5.426;2022-09-29T04:35:03;99982.78;;;4.39;100.00
62420;BME280;48460;51.616;5.426;2022-09-29T04:37:29;99983.69;;;4.38;100.00
62420;BME280;48460;51.616;5.426;2022-09-29T04:39:55;99991.53;;;4.36;100.00
62420;BME280;48460;51.616;5.426;2022-09-29T04:42:21;99990.59;;;4.39;100.00
62420;BME280;48460;51.616;5.426;2022-09-29T04:44:46;99995.06;;;4.35;100.00
62420;BME280;48460;51.616;5.426;2022-09-29T04:47:12;100000.19;;;4.37;100.00
62420;BME280;48460;51.616;5.426;2022-09-29T04:49:38;99999.56;;;4.31;100.00
62420;BME280;48460;51.616;5.426;2022-09-29T04:52:03;99998.75;;;4.29;100.00
62420;BME280;48460;51.616;5.426;2022-09-29T04:54:34;99994.50;;;4.27;100.00
62420;BME280;48460;51.616;5.426;2022-09-29T04:56:59;99999.72;;;4.27;100.00
62420;BME280;48460;51.616;5.426;2022-09-29T04:59:26;100006.59;;;4.28;100.00
62420;BME280;48460;51.616;5.426;2022-09-29T05:01:52;99999.69;;;4.28;100.00
62420;BME280;48460;51.616;5.426;2022-09-29T05:04:18;100009.22;;;4.28;100.00
62420;BME280;48460;51.616;5.426;2022-09-29T05:06:46;100000.69;;;4.24;100.00
62420;BME280;48460;51.616;5.426;2022-09-29T05:09:12;99997.38;;;4.21;100.00
62420;BME280;48460;51.616;5.426;2022-09-29T05:11:41;99996.53;;;4.20;100.00
62420;BME280;48460;51.616;5.426;2022-09-29T05:14:06;100002.56;;;4.21;100.00
62420;BME280;48460;51.616;5.426;2022-09-29T05:16:32;100012.31;;;4.16;100.00
62420;BME280;48460;51.616;5.426;2022-09-29T05:18:58;100010.72;;;4.11;100.00
62420;BME280;48460;51.616;5.426;2022-09-29T05:21:25;100011.66;;;4.10;100.00
62420;BME280;48460;51.616;5.426;2022-09-29T05:23:51;100025.56;;;4.09;100.00
62420;BME280;48460;51.616;5.426;2022-09-29T05:26:16;100034.28;;;4.08;100.00
62420;BME280;48460;51.616;5.426;2022-09-29T05:28:44;100031.84;;;4.04;100.00
62420;BME280;48460;51.616;5.426;2022-09-29T05:31:10;100027.53;;;4.03;100.00
62420;BME280;48460;51.616;5.426;2022-09-29T05:33:36;100034.44;;;4.04;100.00
62420;BME280;48460;51.616;5.426;2022-09-29T05:36:08;100032.78;;;4.01;100.00
62420;BME280;48460;51.616;5.426;2022-09-29T05:38:35;100044.91;;;4.02;100.00
62420;BME280;48460;51.616;5.426;2022-09-29T05:41:05;100040.56;;;4.03;100.00
62420;BME280;48460;51.616;5.426;2022-09-29T05:43:31;100043.19;;;4.01;100.00
62420;BME280;48460;51.616;5.426;2022-09-29T05:46:00;100047.56;;;4.01;100.00
62420;BME280;48460;51.616;5.426;2022-09-29T05:48:27;100059.59;;;4.03;100.00
62420;BME280;48460;51.616;5.426;2022-09-29T05:50:57;100050.03;;;4.04;100.00
62420;BME280;48460;51.616;5.426;2022-09-29T05:53:24;100047.66;;;3.98;100.00
62420;BME280;48460;51.616;5.426;2022-09-29T05:55:54;100042.31;;;4.02;100.00
62420;BME280;48460;51.616;5.426;2022-09-29T05:58:19;100058.56;;;4.07;100.00
62420;BME280;48460;51.616;5.426;2022-09-29T06:00:44;100050.00;;;4.05;100.00
62420;BME280;48460;51.616;5.426;2022-09-29T06:03:10;100049.19;;;4.03;100.00
62420;BME280;48460;51.616;5.426;2022-09-29T06:05:39;100061.97;;;4.09;100.00
62420;BME280;48460;51.616;5.426;2022-09-29T06:08:05;100055.88;;;4.10;100.00
62420;BME280;48460;51.616;5.426;2022-09-29T06:10:31;100057.56;;;4.11;100.00
62420;BME280;48460;51.616;5.426;2022-09-29T06:12:57;100061.75;;;4.16;100.00
62420;BME280;48460;51.616;5.426;2022-09-29T06:15:23;100068.59;;;4.18;100.00
62420;BME280;48460;51.616;5.426;2022-09-29T06:17:55;100064.09;;;4.22;100.00
62420;BME280;48460;51.616;5.426;2022-09-29T06:20:21;100063.16;;;4.24;100.00
62420;BME280;48460;51.616;5.426;2022-09-29T06:22:46;100063.94;;;4.26;100.00
62420;BME280;48460;51.616;5.426;2022-09-29T06:25:13;100070.00;;;4.27;100.00
62420;BME280;48460;51.616;5.426;2022-09-29T06:27:38;100078.25;;;4.38;100.00
62420;BME280;48460;51.616;5.426;2022-09-29T06:30:04;100076.31;;;4.43;100.00
62420;BME280;48460;51.616;5.426;2022-09-29T06:32:30;100068.56;;;4.42;100.00
62420;BME280;48460;51.616;5.426;2022-09-29T06:34:55;100081.22;;;4.51;100.00
62420;BME280;48460;51.616;5.426;2022-09-29T06:37:42;100089.63;;;4.57;100.00
62420;BME280;48460;51.616;5.426;2022-09-29T06:40:11;100084.28;;;4.61;100.00
62420;BME280;48460;51.616;5.426;2022-09-29T06:42:37;100086.78;;;4.64;100.00
62420;BME280;48460;51.616;5.426;2022-09-29T06:45:03;100089.22;;;4.68;100.00
62420;BME280;48460;51.616;5.426;2022-09-29T06:47:29;100083.06;;;4.69;100.00
62420;BME280;48460;51.616;5.426;2022-09-29T06:49:55;100093.25;;;4.75;100.00
62420;BME280;48460;51.616;5.426;2022-09-29T06:52:21;100097.31;;;4.83;100.00
62420;BME280;48460;51.616;5.426;2022-09-29T06:54:46;100101.47;;;4.87;100.00
62420;BME280;48460;51.616;5.426;2022-09-29T06:57:12;100095.31;;;4.89;100.00
62420;BME280;48460;51.616;5.426;2022-09-29T06:59:38;100095.25;;;4.91;100.00
62420;BME280;48460;51.616;5.426;2022-09-29T07:02:03;100104.44;;;4.99;100.00
62420;BME280;48460;51.616;5.426;2022-09-29T07:04:29;100102.44;;;5.06;100.00
62420;BME280;48460;51.616;5.426;2022-09-29T07:06:54;100105.69;;;5.11;100.00
62420;BME280;48460;51.616;5.426;2022-09-29T07:09:20;100115.81;;;5.19;100.00
62420;BME280;48460;51.616;5.426;2022-09-29T07:11:48;100113.25;;;5.17;100.00
62420;BME280;48460;51.616;5.426;2022-09-29T07:14:15;100117.50;;;5.20;100.00
62420;BME280;48460;51.616;5.426;2022-09-29T07:16:41;100117.38;;;5.23;100.00
62420;BME280;48460;51.616;5.426;2022-09-29T07:19:07;100112.16;;;5.23;100.00
62420;BME280;48460;51.616;5.426;2022-09-29T07:21:32;100124.88;;;5.31;100.00
62420;BME280;48460;51.616;5.426;2022-09-29T07:23:58;100119.41;;;5.37;100.00
62420;BME280;48460;51.616;5.426;2022-09-29T07:26:23;100129.41;;;5.47;100.00
62420;BME280;48460;51.616;5.426;2022-09-29T07:28:50;100125.56;;;5.56;100.00
62420;BME280;48460;51.616;5.426;2022-09-29T07:31:18;100126.19;;;5.61;100.00
62420;BME280;48460;51.616;5.426;2022-09-29T07:33:44;100132.59;;;5.75;100.00
62420;BME280;48460;51.616;5.426;2022-09-29T07:36:11;100127.38;;;5.95;100.00
62420;BME280;48460;51.616;5.426;2022-09-29T07:38:37;100127.75;;;6.25;100.00
62420;BME280;48460;51.616;5.426;2022-09-29T07:41:04;100136.28;;;6.67;100.00
62420;BME280;48460;51.616;5.426;2022-09-29T07:43:30;100129.97;;;7.07;100.00
62420;BME280;48460;51.616;5.426;2022-09-29T07:45:57;100134.09;;;7.47;100.00
62420;BME280;48460;51.616;5.426;2022-09-29T07:48:25;100136.38;;;7.71;100.00
62420;BME280;48460;51.616;5.426;2022-09-29T07:50:50;100134.47;;;7.90;100.00
62420;BME280;48460;51.616;5.426;2022-09-29T07:53:16;100138.28;;;8.18;100.00
62420;BME280;48460;51.616;5.426;2022-09-29T07:55:42;100143.56;;;8.50;100.00
62420;BME280;48460;51.616;5.426;2022-09-29T07:58:07;100150.59;;;8.81;100.00
62420;BME280;48460;51.616;5.426;2022-09-29T08:00:33;100145.09;;;9.01;100.00
62420;BME280;48460;51.616;5.426;2022-09-29T08:03:03;100148.63;;;9.46;100.00
62420;BME280;48460;51.616;5.426;2022-09-29T08:05:33;100149.63;;;9.88;100.00
62420;BME280;48460;51.616;5.426;2022-09-29T08:08:03;100146.34;;;10.13;100.00
62420;BME280;48460;51.616;5.426;2022-09-29T08:10:30;100155.94;;;10.29;100.00
62420;BME280;48460;51.616;5.426;2022-09-29T08:12:57;100155.09;;;10.42;100.00
62420;BME280;48460;51.616;5.426;2022-09-29T08:18:47;100162.78;;;11.01;100.00
62420;BME280;48460;51.616;5.426;2022-09-29T08:25:03;100169.28;;;11.75;98.63
62420;BME280;48460;51.616;5.426;2022-09-29T08:34:06;100170.84;;;13.15;91.49
62420;BME280;48460;51.616;5.426;2022-09-29T08:39:53;100183.69;;;13.20;92.39
62420;BME280;48460;51.616;5.426;2022-09-29T08:42:25;100181.38;;;13.28;85.44
62420;BME280;48460;51.616;5.426;2022-09-29T08:45:32;100186.88;;;13.25;84.68
62420;BME280;48460;51.616;5.426;2022-09-29T08:51:35;100197.50;;;12.99;90.18
62420;BME280;48460;51.616;5.426;2022-09-29T08:57:24;100200.53;;;12.20;86.15
62420;BME280;48460;51.616;5.426;2022-09-29T09:03:23;100198.75;;;11.55;92.36
62420;BME280;48460;51.616;5.426;2022-09-29T09:06:15;100201.00;;;11.34;90.38
62420;BME280;48460;51.616;5.426;2022-09-29T09:11:35;100208.13;;;11.32;94.76
62420;BME280;48460;51.616;5.426;2022-09-29T09:22:55;100211.59;;;12.12;90.79
62420;BME280;48460;51.616;5.426;2022-09-29T09:33:01;100210.00;;;11.57;91.02
62420;BME280;48460;51.616;5.426;2022-09-29T09:39:03;100214.69;;;11.79;93.89
62420;BME280;48460;51.616;5.426;2022-09-29T09:41:31;100203.56;;;11.88;90.81
62420;BME280;48460;51.616;5.426;2022-09-29T09:44:15;100219.78;;;12.46;91.48
62420;BME280;48460;51.616;5.426;2022-09-29T09:46:48;100216.16;;;12.85;89.46
62420;BME280;48460;51.616;5.426;2022-09-29T09:49:28;100213.94;;;13.16;87.47
62420;BME280;48460;51.616;5.426;2022-09-29T09:55:24;100216.44;;;13.54;84.76
62420;BME280;48460;51.616;5.426;2022-09-29T10:00:40;100228.38;;;13.36;84.87
62420;BME280;48460;51.616;5.426;2022-09-29T10:03:07;100226.53;;;13.12;85.90
62420;BME280;48460;51.616;5.426;2022-09-29T10:05:36;100224.38;;;13.30;85.43
62420;BME280;48460;51.616;5.426;2022-09-29T10:08:05;100224.81;;;13.83;81.35
62420;BME280;48460;51.616;5.426;2022-09-29T10:10:31;100228.03;;;14.45;79.60
62420;BME280;48460;51.616;5.426;2022-09-29T10:13:03;100228.91;;;14.90;77.41
62420;BME280;48460;51.616;5.426;2022-09-29T10:15:50;100232.53;;;15.33;73.27
62420;BME280;48460;51.616;5.426;2022-09-29T10:18:38;100226.75;;;16.13;71.94
62420;BME280;48460;51.616;5.426;2022-09-29T10:23:54;100230.34;;;16.94;69.16
62420;BME280;48460;51.616;5.426;2022-09-29T10:26:24;100225.22;;;17.22;63.27
62420;BME280;48460;51.616;5.426;2022-09-29T10:28:58;100233.28;;;17.80;64.93
62420;BME280;48460;51.616;5.426;2022-09-29T10:33:55;100241.41;;;18.45;62.39
62420;BME280;48460;51.616;5.426;2022-09-29T10:36:23;100239.28;;;19.13;58.34
62420;BME280;48460;51.616;5.426;2022-09-29T10:38:51;100243.16;;;19.83;57.71
62420;BME280;48460;51.616;5.426;2022-09-29T10:41:18;100236.69;;;20.11;56.72
62420;BME280;48460;51.616;5.426;2022-09-29T10:43:47;100237.22;;;20.15;54.07
62420;BME280;48460;51.616;5.426;2022-09-29T10:49:23;100248.16;;;19.86;52.29
62420;BME280;48460;51.616;5.426;2022-09-29T10:52:03;100249.19;;;19.85;55.95
62420;BME280;48460;51.616;5.426;2022-09-29T10:54:33;100244.22;;;20.42;52.24
62420;BME280;48460;51.616;5.426;2022-09-29T10:57:10;100243.22;;;21.03;54.34
62420;BME280;48460;51.616;5.426;2022-09-29T10:59:45;100239.09;;;21.33;51.37
62420;BME280;48460;51.616;5.426;2022-09-29T11:02:36;100239.16;;;21.82;49.51
62420;BME280;48460;51.616;5.426;2022-09-29T11:05:04;100243.69;;;21.66;47.11
62420;BME280;48460;51.616;5.426;2022-09-29T11:07:44;100244.19;;;21.85;48.25
62420;BME280;48460;51.616;5.426;2022-09-29T11:10:34;100233.63;;;22.08;49.20
62420;BME280;48460;51.616;5.426;2022-09-29T11:13:51;100238.66;;;22.03;43.67
62420;BME280;48460;51.616;5.426;2022-09-29T11:16:27;100246.53;;;21.05;46.77
62420;BME280;48460;51.616;5.426;2022-09-29T11:18:56;100253.28;;;20.75;47.47
62420;BME280;48460;51.616;5.426;2022-09-29T11:26:36;100250.91;;;21.81;46.01
62420;BME280;48460;51.616;5.426;2022-09-29T11:29:29;100238.34;;;21.57;45.35
62420;BME280;48460;51.616;5.426;2022-09-29T11:43:29;100239.84;;;23.43;41.51
62420;BME280;48460;51.616;5.426;2022-09-29T11:49:03;100251.31;;;23.37;41.89
62420;BME280;48460;51.616;5.426;2022-09-29T12:00:08;100254.00;;;22.50;39.95
62420;BME280;48460;51.616;5.426;2022-09-29T12:08:49;100254.31;;;24.41;38.23
62420;BME280;48460;51.616;5.426;2022-09-29T12:11:39;100257.06;;;24.18;36.02
62420;BME280;48460;51.616;5.426;2022-09-29T12:17:00;100256.66;;;23.14;38.69
62420;BME280;48460;51.616;5.426;2022-09-29T12:19:31;100257.69;;;23.36;36.71
62420;BME280;48460;51.616;5.426;2022-09-29T12:22:00;100258.19;;;22.53;37.85
62420;BME280;48460;51.616;5.426;2022-09-29T12:24:42;100258.38;;;22.99;39.98
62420;BME280;48460;51.616;5.426;2022-09-29T12:29:58;100256.53;;;22.52;36.87
62420;BME280;48460;51.616;5.426;2022-09-29T12:35:03;100260.81;;;20.80;42.64
62420;BME280;48460;51.616;5.426;2022-09-29T12:37:39;100263.09;;;21.59;39.03
62420;BME280;48460;51.616;5.426;2022-09-29T12:42:47;100252.06;;;21.95;39.27
62420;BME280;48460;51.616;5.426;2022-09-29T12:51:11;100255.13;;;24.27;35.15
62420;BME280;48460;51.616;5.426;2022-09-29T12:56:19;100252.84;;;23.32;36.91
62420;BME280;48460;51.616;5.426;2022-09-29T12:58:57;100247.13;;;23.35;36.75
62420;BME280;48460;51.616;5.426;2022-09-29T13:01:32;100249.00;;;24.18;36.67
62420;BME280;48460;51.616;5.426;2022-09-29T13:04:45;100242.69;;;24.11;35.13
62420;BME280;48460;51.616;5.426;2022-09-29T13:13:53;100256.47;;;23.93;36.47
62420;BME280;48460;51.616;5.426;2022-09-29T13:16:45;100252.94;;;23.93;36.30
62420;BME280;48460;51.616;5.426;2022-09-29T13:25:46;100256.72;;;24.36;35.14
62420;BME280;48460;51.616;5.426;2022-09-29T13:27:46;100256.50;;;24.75;33.58
62420;BME280;48460;51.616;5.426;2022-09-29T13:30:17;100260.66;;;25.08;33.29
62420;BME280;48460;51.616;5.426;2022-09-29T13:35:37;100258.41;;;25.69;33.43
62420;BME280;48460;51.616;5.426;2022-09-29T13:38:06;100259.72;;;25.15;32.16
62420;BME280;48460;51.616;5.426;2022-09-29T13:40:32;100266.75;;;25.53;33.75
62420;BME280;48460;51.616;5.426;2022-09-29T13:43:02;100265.94;;;25.52;33.08
62420;BME280;48460;51.616;5.426;2022-09-29T13:50:57;100264.94;;;24.87;33.00
62420;BME280;48460;51.616;5.426;2022-09-29T13:53:42;100260.03;;;24.23;33.81
62420;BME280;48460;51.616;5.426;2022-09-29T13:56:16;100266.44;;;22.99;37.34
62420;BME280;48460;51.616;5.426;2022-09-29T13:59:03;100266.94;;;22.06;39.24
62420;BME280;48460;51.616;5.426;2022-09-29T14:01:37;100272.19;;;21.24;41.65
62420;BME280;48460;51.616;5.426;2022-09-29T14:06:58;100275.25;;;20.35;42.01
62420;BME280;48460;51.616;5.426;2022-09-29T14:09:29;100275.81;;;20.20;43.13
62420;BME280;48460;51.616;5.426;2022-09-29T14:12:02;100279.16;;;19.78;41.67
62420;BME280;48460;51.616;5.426;2022-09-29T14:14:35;100288.59;;;19.00;41.75
62420;BME280;48460;51.616;5.426;2022-09-29T14:20:15;100291.25;;;19.00;45.46
62420;BME280;48460;51.616;5.426;2022-09-29T14:27:38;100300.63;;;18.66;45.17
62420;BME280;48460;51.616;5.426;2022-09-29T14:35:36;100304.81;;;18.79;46.99
62420;BME280;48460;51.616;5.426;2022-09-29T14:40:27;100305.97;;;18.47;46.52
62420;BME280;48460;51.616;5.426;2022-09-29T14:43:15;100307.47;;;18.69;46.99
62420;BME280;48460;51.616;5.426;2022-09-29T14:49:00;100318.97;;;18.70;48.52
62420;BME280;48460;51.616;5.426;2022-09-29T14:51:54;100312.63;;;18.90;48.56
62420;BME280;48460;51.616;5.426;2022-09-29T14:54:33;100314.28;;;19.01;48.88
62420;BME280;48460;51.616;5.426;2022-09-29T15:00:10;100319.56;;;19.10;47.70
62420;BME280;48460;51.616;5.426;2022-09-29T15:02:41;100315.88;;;19.11;48.75
62420;BME280;48460;51.616;5.426;2022-09-29T15:08:18;100321.41;;;19.00;47.17
62420;BME280;48460;51.616;5.426;2022-09-29T15:10:45;100326.19;;;18.97;48.56
62420;BME280;48460;51.616;5.426;2022-09-29T15:13:27;100319.91;;;18.88;49.80
62420;BME280;48460;51.616;5.426;2022-09-29T15:16:01;100325.59;;;18.65;49.64
62420;BME280;48460;51.616;5.426;2022-09-29T15:18:56;100330.50;;;18.60;50.53
62420;BME280;48460;51.616;5.426;2022-09-29T15:21:41;100337.56;;;18.22;51.04
62420;BME280;48460;51.616;5.426;2022-09-29T15:24:27;100341.06;;;18.13;51.34
62420;BME280;48460;51.616;5.426;2022-09-29T15:27:05;100340.38;;;18.02;52.77
62420;BME280;48460;51.616;5.426;2022-09-29T15:29:36;100343.88;;;17.92;53.00
62420;BME280;48460;51.616;5.426;2022-09-29T15:32:03;100348.19;;;17.93;52.74
62420;BME280;48460;51.616;5.426;2022-09-29T15:34:30;100346.53;;;17.92;53.01
62420;BME280;48460;51.616;5.426;2022-09-29T15:36:56;100348.28;;;17.72;52.13
62420;BME280;48460;51.616;5.426;2022-09-29T15:42:03;100345.72;;;17.42;53.72
62420;BME280;48460;51.616;5.426;2022-09-29T15:44:36;100347.63;;;17.20;55.27
62420;BME280;48460;51.616;5.426;2022-09-29T15:47:01;100342.09;;;17.02;56.54
62420;BME280;48460;51.616;5.426;2022-09-29T15:49:28;100345.97;;;16.98;58.12
62420;BME280;48460;51.616;5.426;2022-09-29T15:54:26;100350.31;;;16.69;59.53
62420;BME280;48460;51.616;5.426;2022-09-29T15:56:52;100351.66;;;16.63;61.58
62420;BME280;48460;51.616;5.426;2022-09-29T15:59:52;100365.72;;;16.54;63.08
62420;BME280;48460;51.616;5.426;2022-09-29T16:02:39;100364.28;;;16.50;61.42
62420;BME280;48460;51.616;5.426;2022-09-29T16:05:10;100374.16;;;16.48;62.30
62420;BME280;48460;51.616;5.426;2022-09-29T16:07:40;100375.19;;;16.35;64.51
62420;BME280;48460;51.616;5.426;2022-09-29T16:10:18;100379.88;;;16.22;65.20
62420;BME280;48460;51.616;5.426;2022-09-29T16:12:47;100384.47;;;16.09;66.21
62420;BME280;48460;51.616;5.426;2022-09-29T16:15:43;100384.22;;;16.12;65.60
62420;BME280;48460;51.616;5.426;2022-09-29T16:18:17;100383.59;;;15.87;68.92
62420;BME280;48460;51.616;5.426;2022-09-29T16:20:45;100390.88;;;15.63;69.08
62420;BME280;48460;51.616;5.426;2022-09-29T16:23:39;100391.84;;;15.50;69.67
62420;BME280;48460;51.616;5.426;2022-09-29T16:28:32;100403.38;;;15.49;72.14
62420;BME280;48460;51.616;5.426;2022-09-29T16:31:03;100396.81;;;15.44;72.82
62420;BME280;48460;51.616;5.426;2022-09-29T16:33:32;100396.06;;;15.42;73.94
62420;BME280;48460;51.616;5.426;2022-09-29T16:36:17;100411.38;;;15.38;73.06
62420;BME280;48460;51.616;5.426;2022-09-29T16:38:47;100396.06;;;15.19;73.38
62420;BME280;48460;51.616;5.426;2022-09-29T16:41:28;100419.19;;;15.17;75.16
62420;BME280;48460;51.616;5.426;2022-09-29T16:46:51;100422.91;;;15.03;77.01
62420;BME280;48460;51.616;5.426;2022-09-29T16:51:49;100428.41;;;14.89;79.26
62420;BME280;48460;51.616;5.426;2022-09-29T16:54:21;100420.59;;;14.76;79.53
62420;BME280;48460;51.616;5.426;2022-09-29T16:56:48;100430.81;;;14.70;80.23
62420;BME280;48460;51.616;5.426;2022-09-29T16:59:35;100434.00;;;14.62;79.70
62420;BME280;48460;51.616;5.426;2022-09-29T17:02:00;100424.28;;;14.39;79.82
62420;BME280;48460;51.616;5.426;2022-09-29T17:04:26;100439.88;;;14.30;80.36
62420;BME280;48460;51.616;5.426;2022-09-29T17:06:51;100437.06;;;14.21;81.37
62420;BME280;48460;51.616;5.426;2022-09-29T17:09:19;100436.16;;;14.09;82.25